sensor_id;sensor_type;location;lat;lon;timestamp;pressure;altitude;pressure_sealevel;temperature;humidity
12213;BME280;6169;44.158;22.788;2023-08-24T00:00:39;100945.63;;;29.32;44.96
12213;BME280;6169;44.158;22.788;2023-08-24T00:05:42;100937.63;;;29.03;45.76
12213;BME280;6169;44.158;22.788;2023-08-24T00:10:45;100941.47;;;29.10;45.69
12213;BME280;6169;44.158;22.788;2023-08-24T00:15:48;100924.13;;;29.21;45.19
12213;BME280;6169;44.158;22.788;2023-08-24T00:20:50;100866.97;;;28.49;45.87
12213;BME280;6169;44.158;22.788;2023-08-24T00:25:54;100926.75;;;28.57;46.63
12213;BME280;6169;44.158;22.788;2023-08-24T00:30:56;100914.28;;;29.11;45.87
12213;BME280;6169;44.158;22.788;2023-08-24T00:36:00;100863.81;;;28.11;47.12
12213;BME280;6169;44.158;22.788;2023-08-24T00:41:04;100914.63;;;28.53;47.13
12213;BME280;6169;44.158;22.788;2023-08-24T00:46:06;100905.13;;;28.70;46.24
12213;BME280;6169;44.158;22.788;2023-08-24T00:51:08;100914.13;;;28.23;46.94
12213;BME280;6169;44.158;22.788;2023-08-24T00:56:12;100921.94;;;28.05;47.54
12213;BME280;6169;44.158;22.788;2023-08-24T01:01:15;100909.72;;;28.10;48.44
12213;BME280;6169;44.158;22.788;2023-08-24T01:06:17;100909.53;;;28.31;47.59
12213;BME280;6169;44.158;22.788;2023-08-24T01:11:26;100894.47;;;27.95;48.10
12213;BME280;6169;44.158;22.788;2023-08-24T01:16:34;100898.06;;;27.95;48.04
12213;BME280;6169;44.158;22.788;2023-08-24T01:21:41;100882.59;;;28.10;48.34
12213;BME280;6169;44.158;22.788;2023-08-24T01:26:46;100883.47;;;28.26;47.56
12213;BME280;6169;44.158;22.788;2023-08-24T01:31:50;100874.13;;;28.35;47.09
12213;BME280;6169;44.158;22.788;2023-08-24T01:36:52;100879.13;;;27.64;49.44
12213;BME280;6169;44.158;22.788;2023-08-24T01:41:59;100884.81;;;27.55;49.38
12213;BME280;6169;44.158;22.788;2023-08-24T01:47:04;100878.72;;;27.17;50.67
12213;BME280;6169;44.158;22.788;2023-08-24T01:52:08;100880.47;;;27.33;50.15
12213;BME280;6169;44.158;22.788;2023-08-24T01:57:12;100883.66;;;26.99;51.11
12213;BME280;6169;44.158;22.788;2023-08-24T02:02:14;100879.03;;;27.03;51.30
12213;BME280;6169;44.158;22.788;2023-08-24T02:07:16;100875.16;;;27.53;49.60
12213;BME280;6169;44.158;22.788;2023-08-24T02:12:20;100877.13;;;26.95;51.81
12213;BME280;6169;44.158;22.788;2023-08-24T02:17:22;100877.41;;;27.14;51.73
12213;BME280;6169;44.158;22.788;2023-08-24T02:22:24;100887.66;;;26.56;53.72
12213;BME280;6169;44.158;22.788;2023-08-24T02:27:28;100886.81;;;26.76;53.64
12213;BME280;6169;44.158;22.788;2023-08-24T02:32:30;100893.06;;;26.94;53.46
12213;BME280;6169;44.158;22.788;2023-08-24T02:37:32;100894.66;;;27.28;52.41
12213;BME280;6169;44.158;22.788;2023-08-24T02:42:36;100897.25;;;27.82;50.63
12213;BME280;6169;44.158;22.788;2023-08-24T02:47:38;100905.59;;;27.33;52.29
12213;BME280;6169;44.158;22.788;2023-08-24T02:52:40;100898.44;;;27.69;50.98
12213;BME280;6169;44.158;22.788;2023-08-24T02:57:44;100905.13;;;27.31;51.65
12213;BME280;6169;44.158;22.788;2023-08-24T03:02:46;100897.03;;;26.72;54.29
12213;BME280;6169;44.158;22.788;2023-08-24T03:07:48;100897.66;;;27.11;52.65
12213;BME280;6169;44.158;22.788;2023-08-24T03:12:52;100898.81;;;26.89;53.36
12213;BME280;6169;44.158;22.788;2023-08-24T03:17:54;100899.06;;;27.29;52.43
12213;BME280;6169;44.158;22.788;2023-08-24T03:22:56;100896.13;;;27.13;52.38
12213;BME280;6169;44.158;22.788;2023-08-24T03:28:00;100913.66;;;27.59;51.10
12213;BME280;6169;44.158;22.788;2023-08-24T03:33:03;100926.13;;;27.87;50.25
12213;BME280;6169;44.158;22.788;2023-08-24T03:38:06;100926.13;;;27.99;49.47
12213;BME280;6169;44.158;22.788;2023-08-24T03:43:10;100868.47;;;27.21;50.69
12213;BME280;6169;44.158;22.788;2023-08-24T03:48:12;100929.03;;;27.08;52.41
12213;BME280;6169;44.158;22.788;2023-08-24T03:53:15;100931.31;;;27.39;51.43
12213;BME280;6169;44.158;22.788;2023-08-24T03:58:18;100931.22;;;27.60;50.42
12213;BME280;6169;44.158;22.788;2023-08-24T04:03:21;100942.56;;;26.76;52.78
12213;BME280;6169;44.158;22.788;2023-08-24T04:08:23;100940.50;;;27.40;51.15
12213;BME280;6169;44.158;22.788;2023-08-24T04:13:27;100937.41;;;27.08;52.16
12213;BME280;6169;44.158;22.788;2023-08-24T04:18:29;100941.50;;;27.23;52.06
12213;BME280;6169;44.158;22.788;2023-08-24T04:23:31;100942.53;;;27.64;50.72
12213;BME280;6169;44.158;22.788;2023-08-24T04:28:35;100944.44;;;27.38;51.18
12213;BME280;6169;44.158;22.788;2023-08-24T04:33:38;100954.81;;;26.84;53.91
12213;BME280;6169;44.158;22.788;2023-08-24T04:38:40;100951.16;;;26.92;53.75
12213;BME280;6169;44.158;22.788;2023-08-24T04:43:43;100958.38;;;27.26;52.68
12213;BME280;6169;44.158;22.788;2023-08-24T04:48:46;100958.50;;;27.75;51.07
12213;BME280;6169;44.158;22.788;2023-08-24T04:53:48;100971.88;;;27.24;52.78
12213;BME280;6169;44.158;22.788;2023-08-24T04:58:55;100972.00;;;27.28;53.81
12213;BME280;6169;44.158;22.788;2023-08-24T05:03:58;100977.19;;;27.63;51.84
12213;BME280;6169;44.158;22.788;2023-08-24T05:09:00;100981.16;;;27.28;53.14
12213;BME280;6169;44.158;22.788;2023-08-24T05:14:04;100983.09;;;28.07;50.88
12213;BME280;6169;44.158;22.788;2023-08-24T05:19:06;100987.47;;;27.95;51.29
12213;BME280;6169;44.158;22.788;2023-08-24T05:24:08;100984.00;;;27.86;51.35
12213;BME280;6169;44.158;22.788;2023-08-24T05:29:12;100980.56;;;27.68;52.64
12213;BME280;6169;44.158;22.788;2023-08-24T05:34:14;100978.88;;;27.43;53.91
12213;BME280;6169;44.158;22.788;2023-08-24T05:39:16;100978.16;;;27.67;53.03
12213;BME280;6169;44.158;22.788;2023-08-24T05:44:20;100978.19;;;28.03;51.96
12213;BME280;6169;44.158;22.788;2023-08-24T05:49:23;100979.91;;;28.33;51.41
12213;BME280;6169;44.158;22.788;2023-08-24T05:54:25;100981.44;;;28.83;49.80
12213;BME280;6169;44.158;22.788;2023-08-24T05:59:29;100979.22;;;29.17;48.52
12213;BME280;6169;44.158;22.788;2023-08-24T06:04:31;100996.19;;;28.96;49.39
12213;BME280;6169;44.158;22.788;2023-08-24T06:09:33;100990.78;;;28.75;50.63
12213;BME280;6169;44.158;22.788;2023-08-24T06:14:37;100991.91;;;29.42;48.18
12213;BME280;6169;44.158;22.788;2023-08-24T06:19:39;100988.53;;;29.65;47.95
12213;BME280;6169;44.158;22.788;2023-08-24T06:24:41;100992.97;;;29.81;47.67
12213;BME280;6169;44.158;22.788;2023-08-24T06:29:45;100998.63;;;29.85;46.89
12213;BME280;6169;44.158;22.788;2023-08-24T06:34:47;100997.28;;;30.27;46.01
12213;BME280;6169;44.158;22.788;2023-08-24T06:39:50;100987.41;;;30.33;45.46
12213;BME280;6169;44.158;22.788;2023-08-24T06:44:53;100991.25;;;30.09;46.69
12213;BME280;6169;44.158;22.788;2023-08-24T06:49:55;100993.88;;;30.17;45.09
12213;BME280;6169;44.158;22.788;2023-08-24T06:54:59;100996.03;;;30.08;46.65
12213;BME280;6169;44.158;22.788;2023-08-24T07:00:03;100986.38;;;30.41;45.16
12213;BME280;6169;44.158;22.788;2023-08-24T07:05:09;100990.50;;;30.82;43.91
12213;BME280;6169;44.158;22.788;2023-08-24T07:10:13;100993.56;;;30.22;45.71
12213;BME280;6169;44.158;22.788;2023-08-24T07:15:17;100998.03;;;31.17;42.81
12213;BME280;6169;44.158;22.788;2023-08-24T07:20:19;100995.50;;;31.31;41.89
12213;BME280;6169;44.158;22.788;2023-08-24T07:25:21;100995.22;;;30.78;42.81
12213;BME280;6169;44.158;22.788;2023-08-24T07:30:25;100999.50;;;31.30;42.97
12213;BME280;6169;44.158;22.788;2023-08-24T07:35:27;100997.50;;;31.31;44.67
12213;BME280;6169;44.158;22.788;2023-08-24T07:40:30;100998.88;;;31.41;44.12
12213;BME280;6169;44.158;22.788;2023-08-24T07:45:34;100999.50;;;31.30;44.22
12213;BME280;6169;44.158;22.788;2023-08-24T07:50:36;100999.03;;;31.94;41.33
12213;BME280;6169;44.158;22.788;2023-08-24T07:55:38;100988.41;;;32.33;39.98
12213;BME280;6169;44.158;22.788;2023-08-24T08:00:42;100991.44;;;32.21;39.59
12213;BME280;6169;44.158;22.788;2023-08-24T08:05:45;100996.59;;;31.92;40.59
12213;BME280;6169;44.158;22.788;2023-08-24T08:10:47;100996.47;;;32.35;39.48
12213;BME280;6169;44.158;22.788;2023-08-24T08:15:51;100989.66;;;32.62;38.39
12213;BME280;6169;44.158;22.788;2023-08-24T08:20:53;100986.88;;;32.39;39.68
12213;BME280;6169;44.158;22.788;2023-08-24T08:25:55;100993.25;;;32.36;39.11
12213;BME280;6169;44.158;22.788;2023-08-24T08:30:59;100980.56;;;33.44;36.88
12213;BME280;6169;44.158;22.788;2023-08-24T08:36:02;100967.91;;;32.59;38.22
12213;BME280;6169;44.158;22.788;2023-08-24T08:41:05;100968.56;;;33.50;36.47
12213;BME280;6169;44.158;22.788;2023-08-24T08:46:08;100972.59;;;33.97;36.58
12213;BME280;6169;44.158;22.788;2023-08-24T08:51:13;100963.72;;;34.03;35.17
12213;BME280;6169;44.158;22.788;2023-08-24T08:56:16;100966.53;;;33.99;35.88
12213;BME280;6169;44.158;22.788;2023-08-24T09:01:20;100964.47;;;34.62;35.23
12213;BME280;6169;44.158;22.788;2023-08-24T09:06:23;100969.88;;;34.96;34.61
12213;BME280;6169;44.158;22.788;2023-08-24T09:11:25;100958.34;;;34.38;34.92
12213;BME280;6169;44.158;22.788;2023-08-24T09:16:30;100953.06;;;35.42;33.18
12213;BME280;6169;44.158;22.788;2023-08-24T09:21:36;100948.19;;;35.28;32.22
12213;BME280;6169;44.158;22.788;2023-08-24T09:26:40;100947.41;;;35.39;32.11
12213;BME280;6169;44.158;22.788;2023-08-24T09:31:45;100948.22;;;35.36;31.84
12213;BME280;6169;44.158;22.788;2023-08-24T09:36:48;100946.59;;;35.52;31.65
12213;BME280;6169;44.158;22.788;2023-08-24T09:41:50;100944.91;;;36.34;30.52
12213;BME280;6169;44.158;22.788;2023-08-24T09:46:54;100943.75;;;35.60;30.89
12213;BME280;6169;44.158;22.788;2023-08-24T09:51:57;100932.81;;;36.15;29.94
12213;BME280;6169;44.158;22.788;2023-08-24T09:57:00;100936.88;;;35.93;30.46
12213;BME280;6169;44.158;22.788;2023-08-24T10:02:10;100930.84;;;35.84;30.45
12213;BME280;6169;44.158;22.788;2023-08-24T10:07:20;100917.47;;;35.98;29.92
12213;BME280;6169;44.158;22.788;2023-08-24T10:12:26;100915.63;;;36.73;28.35
12213;BME280;6169;44.158;22.788;2023-08-24T10:17:32;100904.41;;;36.51;29.25
12213;BME280;6169;44.158;22.788;2023-08-24T10:22:36;100889.97;;;37.01;28.53
12213;BME280;6169;44.158;22.788;2023-08-24T10:27:41;100889.03;;;37.19;28.16
12213;BME280;6169;44.158;22.788;2023-08-24T10:32:46;100881.81;;;37.07;28.26
12213;BME280;6169;44.158;22.788;2023-08-24T10:37:52;100866.94;;;36.96;28.29
12213;BME280;6169;44.158;22.788;2023-08-24T10:42:54;100864.41;;;37.08;28.40
12213;BME280;6169;44.158;22.788;2023-08-24T10:47:58;100854.69;;;37.13;28.07
12213;BME280;6169;44.158;22.788;2023-08-24T10:53:00;100850.66;;;37.56;27.71
12213;BME280;6169;44.158;22.788;2023-08-24T10:58:05;100841.47;;;37.44;27.10
12213;BME280;6169;44.158;22.788;2023-08-24T11:03:08;100823.75;;;38.09;26.85
12213;BME280;6169;44.158;22.788;2023-08-24T11:08:11;100808.28;;;37.41;27.54
12213;BME280;6169;44.158;22.788;2023-08-24T11:13:14;100809.19;;;37.69;27.38
12213;BME280;6169;44.158;22.788;2023-08-24T11:18:23;100803.94;;;37.67;27.48
12213;BME280;6169;44.158;22.788;2023-08-24T11:23:26;100805.44;;;37.79;26.88
12213;BME280;6169;44.158;22.788;2023-08-24T11:28:30;100810.94;;;37.93;26.74
12213;BME280;6169;44.158;22.788;2023-08-24T11:33:34;100797.97;;;37.58;27.66
12213;BME280;6169;44.158;22.788;2023-08-24T11:38:37;100808.16;;;37.52;25.77
12213;BME280;6169;44.158;22.788;2023-08-24T11:43:41;100816.78;;;38.13;25.50
12213;BME280;6169;44.158;22.788;2023-08-24T11:48:45;100764.69;;;37.96;25.23
12213;BME280;6169;44.158;22.788;2023-08-24T11:53:49;100816.06;;;38.36;24.61
12213;BME280;6169;44.158;22.788;2023-08-24T11:58:51;100806.91;;;38.56;23.44
12213;BME280;6169;44.158;22.788;2023-08-24T12:03:55;100794.91;;;37.42;24.09
12213;BME280;6169;44.158;22.788;2023-08-24T12:08:57;100787.59;;;37.44;24.45
12213;BME280;6169;44.158;22.788;2023-08-24T12:14:00;100799.03;;;37.71;24.78
12213;BME280;6169;44.158;22.788;2023-08-24T12:19:07;100782.28;;;37.05;25.72
12213;BME280;6169;44.158;22.788;2023-08-24T12:24:13;100793.28;;;38.13;25.39
12213;BME280;6169;44.158;22.788;2023-08-24T12:29:18;100777.47;;;37.81;25.91
12213;BME280;6169;44.158;22.788;2023-08-24T12:34:22;100785.00;;;37.57;26.81
12213;BME280;6169;44.158;22.788;2023-08-24T12:39:24;100794.56;;;36.84;27.67
12213;BME280;6169;44.158;22.788;2023-08-24T12:44:27;100794.38;;;35.44;29.92
12213;BME280;6169;44.158;22.788;2023-08-24T12:49:31;100793.50;;;34.47;31.06
12213;BME280;6169;44.158;22.788;2023-08-24T12:54:33;100796.81;;;35.06;30.17
12213;BME280;6169;44.158;22.788;2023-08-24T12:59:36;100780.56;;;35.82;29.60
12213;BME280;6169;44.158;22.788;2023-08-24T13:04:40;100743.56;;;36.32;29.33
12213;BME280;6169;44.158;22.788;2023-08-24T13:09:43;100724.03;;;36.52;28.95
12213;BME280;6169;44.158;22.788;2023-08-24T13:14:46;100735.16;;;36.77;29.08
12213;BME280;6169;44.158;22.788;2023-08-24T13:19:50;100711.06;;;37.44;28.47
12213;BME280;6169;44.158;22.788;2023-08-24T13:24:52;100701.16;;;37.22;28.59
12213;BME280;6169;44.158;22.788;2023-08-24T13:29:57;100702.75;;;37.61;28.60
12213;BME280;6169;44.158;22.788;2023-08-24T13:35:03;100705.97;;;37.25;26.64
12213;BME280;6169;44.158;22.788;2023-08-24T13:40:06;100706.66;;;37.70;26.15
12213;BME280;6169;44.158;22.788;2023-08-24T13:45:10;100712.00;;;36.33;27.17
12213;BME280;6169;44.158;22.788;2023-08-24T13:50:14;100741.59;;;36.81;26.52
12213;BME280;6169;44.158;22.788;2023-08-24T13:55:16;100735.31;;;37.07;25.54
12213;BME280;6169;44.158;22.788;2023-08-24T14:00:19;100743.88;;;37.00;25.70
12213;BME280;6169;44.158;22.788;2023-08-24T14:05:25;100736.72;;;36.85;23.17
12213;BME280;6169;44.158;22.788;2023-08-24T14:10:27;100764.28;;;36.77;24.20
12213;BME280;6169;44.158;22.788;2023-08-24T14:15:30;100766.13;;;36.98;23.74
12213;BME280;6169;44.158;22.788;2023-08-24T14:20:34;100756.06;;;36.31;25.68
12213;BME280;6169;44.158;22.788;2023-08-24T14:25:36;100757.28;;;36.37;26.54
12213;BME280;6169;44.158;22.788;2023-08-24T14:30:39;100752.06;;;36.84;26.44
12213;BME280;6169;44.158;22.788;2023-08-24T14:35:50;100743.28;;;36.08;27.51
12213;BME280;6169;44.158;22.788;2023-08-24T14:40:52;100751.34;;;36.10;27.84
12213;BME280;6169;44.158;22.788;2023-08-24T14:45:54;100746.78;;;36.34;27.45
12213;BME280;6169;44.158;22.788;2023-08-24T14:50:58;100739.25;;;36.09;27.40
12213;BME280;6169;44.158;22.788;2023-08-24T14:56:00;100730.53;;;36.49;27.58
12213;BME280;6169;44.158;22.788;2023-08-24T15:01:03;100724.28;;;36.02;27.92
12213;BME280;6169;44.158;22.788;2023-08-24T15:06:07;100717.16;;;35.75;27.87
12213;BME280;6169;44.158;22.788;2023-08-24T15:11:09;100722.44;;;35.59;27.09
12213;BME280;6169;44.158;22.788;2023-08-24T15:16:12;100718.75;;;35.76;27.90
12213;BME280;6169;44.158;22.788;2023-08-24T15:21:16;100711.53;;;35.72;28.49
12213;BME280;6169;44.158;22.788;2023-08-24T15:26:18;100722.06;;;35.64;27.67
12213;BME280;6169;44.158;22.788;2023-08-24T15:31:20;100705.13;;;35.50;28.02
12213;BME280;6169;44.158;22.788;2023-08-24T15:36:24;100706.81;;;35.22;29.35
12213;BME280;6169;44.158;22.788;2023-08-24T15:41:26;100716.50;;;35.25;29.46
12213;BME280;6169;44.158;22.788;2023-08-24T15:46:29;100722.16;;;34.57;30.49
12213;BME280;6169;44.158;22.788;2023-08-24T15:51:33;100716.94;;;34.87;29.98
12213;BME280;6169;44.158;22.788;2023-08-24T15:56:35;100716.47;;;35.14;30.25
12213;BME280;6169;44.158;22.788;2023-08-24T16:01:38;100722.56;;;35.02;30.18
12213;BME280;6169;44.158;22.788;2023-08-24T16:06:42;100721.75;;;34.65;31.36
12213;BME280;6169;44.158;22.788;2023-08-24T16:11:44;100720.56;;;34.77;30.63
12213;BME280;6169;44.158;22.788;2023-08-24T16:16:47;100718.13;;;34.76;31.35
12213;BME280;6169;44.158;22.788;2023-08-24T16:21:50;100714.50;;;34.79;31.73
12213;BME280;6169;44.158;22.788;2023-08-24T16:26:53;100722.94;;;34.61;32.30
12213;BME280;6169;44.158;22.788;2023-08-24T16:31:55;100714.84;;;34.45;33.24
12213;BME280;6169;44.158;22.788;2023-08-24T16:36:59;100719.31;;;34.75;32.75
12213;BME280;6169;44.158;22.788;2023-08-24T16:42:03;100720.34;;;33.91;34.12
12213;BME280;6169;44.158;22.788;2023-08-24T16:47:05;100735.75;;;34.19;33.90
12213;BME280;6169;44.158;22.788;2023-08-24T16:52:09;100734.56;;;34.23;34.21
12213;BME280;6169;44.158;22.788;2023-08-24T16:57:11;100739.75;;;34.07;34.38
12213;BME280;6169;44.158;22.788;2023-08-24T17:02:14;100740.88;;;33.88;35.25
12213;BME280;6169;44.158;22.788;2023-08-24T17:07:17;100743.56;;;33.60;35.47
12213;BME280;6169;44.158;22.788;2023-08-24T17:12:20;100738.69;;;33.49;35.72
12213;BME280;6169;44.158;22.788;2023-08-24T17:17:22;100741.56;;;33.64;35.88
12213;BME280;6169;44.158;22.788;2023-08-24T17:22:26;100748.78;;;33.57;35.97
12213;BME280;6169;44.158;22.788;2023-08-24T17:27:28;100759.47;;;33.34;36.09
12213;BME280;6169;44.158;22.788;2023-08-24T17:32:31;100761.09;;;32.87;36.87
12213;BME280;6169;44.158;22.788;2023-08-24T17:37:35;100770.06;;;32.55;37.40
12213;BME280;6169;44.158;22.788;2023-08-24T17:42:38;100779.00;;;32.31;38.04
12213;BME280;6169;44.158;22.788;2023-08-24T17:47:40;100784.56;;;32.57;37.61
12213;BME280;6169;44.158;22.788;2023-08-24T17:52:46;100766.38;;;31.84;38.81
12213;BME280;6169;44.158;22.788;2023-08-24T17:57:50;100792.75;;;32.36;37.82
12213;BME280;6169;44.158;22.788;2023-08-24T18:02:52;100797.56;;;32.01;38.46
12213;BME280;6169;44.158;22.788;2023-08-24T18:07:56;100792.25;;;32.27;38.46
12213;BME280;6169;44.158;22.788;2023-08-24T18:12:58;100797.47;;;32.28;38.71
12213;BME280;6169;44.158;22.788;2023-08-24T18:18:01;100800.72;;;32.00;39.14
12213;BME280;6169;44.158;22.788;2023-08-24T18:23:05;100791.97;;;32.05;39.56
12213;BME280;6169;44.158;22.788;2023-08-24T18:28:07;100798.69;;;31.67;40.49
12213;BME280;6169;44.158;22.788;2023-08-24T18:33:09;100807.16;;;31.70;40.14
12213;BME280;6169;44.158;22.788;2023-08-24T18:38:13;100801.84;;;31.65;40.23
12213;BME280;6169;44.158;22.788;2023-08-24T18:43:16;100811.22;;;31.00;42.13
12213;BME280;6169;44.158;22.788;2023-08-24T18:48:18;100816.88;;;31.50;40.72
12213;BME280;6169;44.158;22.788;2023-08-24T18:53:22;100810.81;;;31.21;41.04
12213;BME280;6169;44.158;22.788;2023-08-24T18:58:25;100816.72;;;30.93;42.25
12213;BME280;6169;44.158;22.788;2023-08-24T19:03:28;100812.91;;;30.82;42.33
12213;BME280;6169;44.158;22.788;2023-08-24T19:08:32;100812.41;;;31.22;40.98
12213;BME280;6169;44.158;22.788;2023-08-24T19:13:34;100812.38;;;31.19;41.07
12213;BME280;6169;44.158;22.788;2023-08-24T19:18:36;100799.88;;;31.16;40.81
12213;BME280;6169;44.158;22.788;2023-08-24T19:23:42;100796.53;;;30.45;43.13
12213;BME280;6169;44.158;22.788;2023-08-24T19:28:44;100792.81;;;30.37;43.33
12213;BME280;6169;44.158;22.788;2023-08-24T19:33:47;100792.38;;;30.78;41.67
12213;BME280;6169;44.158;22.788;2023-08-24T19:38:51;100796.13;;;30.62;42.59
12213;BME280;6169;44.158;22.788;2023-08-24T19:43:53;100791.78;;;30.07;43.31
12213;BME280;6169;44.158;22.788;2023-08-24T19:48:56;100789.19;;;29.63;44.39
12213;BME280;6169;44.158;22.788;2023-08-24T19:54:00;100785.63;;;29.81;44.66
12213;BME280;6169;44.158;22.788;2023-08-24T19:59:03;100785.44;;;30.10;43.37
12213;BME280;6169;44.158;22.788;2023-08-24T20:04:05;100791.16;;;29.78;44.52
12213;BME280;6169;44.158;22.788;2023-08-24T20:09:09;100803.56;;;30.16;43.34
12213;BME280;6169;44.158;22.788;2023-08-24T20:14:12;100808.72;;;30.14;43.78
12213;BME280;6169;44.158;22.788;2023-08-24T20:19:15;100829.03;;;30.46;43.00
12213;BME280;6169;44.158;22.788;2023-08-24T20:24:18;100829.78;;;30.43;43.10
12213;BME280;6169;44.158;22.788;2023-08-24T20:29:22;100822.81;;;29.63;44.90
12213;BME280;6169;44.158;22.788;2023-08-24T20:34:24;100814.34;;;29.27;45.51
12213;BME280;6169;44.158;22.788;2023-08-24T20:39:28;100821.72;;;29.51;45.44
12213;BME280;6169;44.158;22.788;2023-08-24T20:44:31;100821.97;;;29.78;44.82
12213;BME280;6169;44.158;22.788;2023-08-24T20:49:34;100813.84;;;29.73;44.77
12213;BME280;6169;44.158;22.788;2023-08-24T20:54:38;100814.88;;;29.84;44.05
12213;BME280;6169;44.158;22.788;2023-08-24T20:59:40;100824.97;;;29.89;44.46
12213;BME280;6169;44.158;22.788;2023-08-24T21:04:43;100826.34;;;29.95;43.88
12213;BME280;6169;44.158;22.788;2023-08-24T21:09:47;100834.25;;;30.28;43.26
12213;BME280;6169;44.158;22.788;2023-08-24T21:14:50;100828.44;;;29.82;44.31
12213;BME280;6169;44.158;22.788;2023-08-24T21:19:52;100833.84;;;29.91;44.34
12213;BME280;6169;44.158;22.788;2023-08-24T21:24:56;100838.78;;;29.62;44.46
12213;BME280;6169;44.158;22.788;2023-08-24T21:30:00;100838.06;;;29.65;44.57
12213;BME280;6169;44.158;22.788;2023-08-24T21:35:03;100830.50;;;29.50;45.00
12213;BME280;6169;44.158;22.788;2023-08-24T21:40:08;100838.16;;;29.53;44.90
12213;BME280;6169;44.158;22.788;2023-08-24T21:45:11;100846.31;;;29.93;43.61
12213;BME280;6169;44.158;22.788;2023-08-24T21:50:13;100840.63;;;29.90;43.67
12213;BME280;6169;44.158;22.788;2023-08-24T21:55:17;100847.63;;;29.01;46.09
12213;BME280;6169;44.158;22.788;2023-08-24T22:00:20;100853.69;;;29.50;45.28
12213;BME280;6169;44.158;22.788;2023-08-24T22:05:22;100838.25;;;29.41;45.58
12213;BME280;6169;44.158;22.788;2023-08-24T22:10:26;100849.09;;;28.66;46.95
12213;BME280;6169;44.158;22.788;2023-08-24T22:15:28;100854.31;;;28.96;46.32
12213;BME280;6169;44.158;22.788;2023-08-24T22:20:30;100848.22;;;28.50;47.75
12213;BME280;6169;44.158;22.788;2023-08-24T22:25:34;100856.38;;;28.15;48.96
12213;BME280;6169;44.158;22.788;2023-08-24T22:30:36;100850.47;;;28.04;49.71
12213;BME280;6169;44.158;22.788;2023-08-24T22:35:38;100856.25;;;27.99;49.66
12213;BME280;6169;44.158;22.788;2023-08-24T22:40:42;100856.41;;;28.43;48.35
12213;BME280;6169;44.158;22.788;2023-08-24T22:45:44;100863.16;;;28.70;47.73
12213;BME280;6169;44.158;22.788;2023-08-24T22:50:46;100869.44;;;29.07;46.70
12213;BME280;6169;44.158;22.788;2023-08-24T22:55:50;100860.88;;;29.04;46.65
12213;BME280;6169;44.158;22.788;2023-08-24T23:00:52;100855.31;;;28.19;48.61
12213;BME280;6169;44.158;22.788;2023-08-24T23:05:54;100846.94;;;28.47;48.36
12213;BME280;6169;44.158;22.788;2023-08-24T23:10:58;100848.63;;;28.64;47.98
12213;BME280;6169;44.158;22.788;2023-08-24T23:16:01;100835.88;;;28.51;47.84
12213;BME280;6169;44.158;22.788;2023-08-24T23:21:04;100850.56;;;28.48;48.96
12213;BME280;6169;44.158;22.788;2023-08-24T23:26:08;100837.34;;;28.61;48.00
12213;BME280;6169;44.158;22.788;2023-08-24T23:31:10;100762.63;;;27.77;48.77
12213;BME280;6169;44.158;22.788;2023-08-24T23:36:13;100831.41;;;27.81;50.47
12213;BME280;6169;44.158;22.788;2023-08-24T23:41:16;100831.81;;;27.96;50.06
12213;BME280;6169;44.158;22.788;2023-08-24T23:46:18;100831.59;;;27.89;50.58
12213;BME280;6169;44.158;22.788;2023-08-24T23:51:21;100834.84;;;28.15;49.21
12213;BME280;6169;44.158;22.788;2023-08-24T23:56:25;100818.56;;;28.05;49.68
